Time;durP1;ratioP1;P1;durP2;ratioP2;P2;SDS_P1;SDS_P2;PMS_P1;PMS_P2;Temp;Humidity;BMP_temperature;BMP_pressure;BME280_temperature;BME280_humidity;BME280_pressure;Samples;Min_cycle;Max_cycle;Signal;HPM_P1;HPM_P2
2024/03/06 00:02:08;;;;;;;16.52;14.32;;;7.40;94.80;;;;;;5053855;28;20071;-79
2024/03/06 00:04:33;;;;;;;16.98;14.20;;;7.40;94.90;;;;;;5051027;28;20071;-81
2024/03/06 00:06:59;;;;;;;17.05;14.15;;;7.30;94.90;;;;;;5052387;28;20036;-82
2024/03/06 00:09:27;;;;;;;18.95;15.15;;;7.30;95.00;;;;;;5052592;28;20457;-80
2024/03/06 00:11:53;;;;;;;18.05;14.10;;;7.30;95.00;;;;;;5053370;28;20033;-81
2024/03/06 00:14:19;;;;;;;18.15;15.50;;;7.20;95.00;;;;;;5054471;28;20090;-81
2024/03/06 00:16:45;;;;;;;20.73;16.73;;;7.20;95.10;;;;;;5054572;28;20021;-80
2024/03/06 00:19:11;;;;;;;20.15;16.23;;;7.20;95.10;;;;;;5049091;28;20165;-80
2024/03/06 00:21:36;;;;;;;19.10;15.93;;;7.20;95.10;;;;;;5051283;28;20029;-81
2024/03/06 00:24:03;;;;;;;17.23;15.07;;;7.20;95.10;;;;;;5050867;28;20012;-81
2024/03/06 00:26:29;;;;;;;18.48;14.25;;;7.20;95.20;;;;;;5053629;28;20037;-81
2024/03/06 00:28:55;;;;;;;19.00;15.15;;;7.20;95.20;;;;;;5047746;28;20033;-80
2024/03/06 00:31:21;;;;;;;16.98;13.55;;;7.20;95.20;;;;;;5052415;28;20025;-81
2024/03/06 00:33:46;;;;;;;17.42;15.15;;;7.20;95.20;;;;;;5056368;28;21774;-80
2024/03/06 00:36:12;;;;;;;18.85;14.73;;;7.20;95.20;;;;;;5054644;28;20028;-79
2024/03/06 00:38:37;;;;;;;17.60;15.60;;;7.20;95.20;;;;;;5051331;28;20311;-81
2024/03/06 00:41:03;;;;;;;18.08;15.70;;;7.20;95.20;;;;;;5055111;28;20120;-81
2024/03/06 00:43:29;;;;;;;18.33;14.90;;;7.20;95.20;;;;;;5055691;28;20278;-80
2024/03/06 00:45:56;;;;;;;17.73;14.70;;;7.10;95.20;;;;;;5055830;28;20048;-80
2024/03/06 00:48:21;;;;;;;16.75;14.57;;;7.10;95.20;;;;;;5055795;28;20024;-80
2024/03/06 00:50:47;;;;;;;19.23;14.45;;;7.10;95.20;;;;;;5059234;28;20602;-81
2024/03/06 00:53:12;;;;;;;15.77;14.07;;;7.10;95.30;;;;;;5052537;28;20077;-81
2024/03/06 00:55:38;;;;;;;16.35;14.00;;;7.10;95.30;;;;;;5055162;28;20107;-79
2024/03/06 00:58:06;;;;;;;16.20;13.40;;;7.10;95.30;;;;;;5055006;28;20050;-78
2024/03/06 01:00:32;;;;;;;15.98;14.27;;;7.10;95.30;;;;;;5054040;28;20029;-81
2024/03/06 01:02:57;;;;;;;16.83;15.00;;;7.10;95.40;;;;;;5060999;28;20029;-81
2024/03/06 01:05:23;;;;;;;15.70;13.65;;;7.10;95.30;;;;;;5053685;28;20484;-82
2024/03/06 01:07:49;;;;;;;16.90;14.13;;;7.00;95.30;;;;;;5054981;28;20029;-79
2024/03/06 01:10:14;;;;;;;17.83;14.35;;;7.00;95.30;;;;;;5055641;28;20440;-81
2024/03/06 01:12:40;;;;;;;18.45;15.82;;;7.00;95.40;;;;;;5059723;28;20024;-81
2024/03/06 01:15:07;;;;;;;17.38;14.18;;;6.90;95.40;;;;;;5052736;28;20040;-79
2024/03/06 01:17:34;;;;;;;20.23;14.93;;;6.90;95.40;;;;;;5051816;28;20420;-80
2024/03/06 01:20:01;;;;;;;19.30;14.82;;;6.80;95.40;;;;;;5057341;28;20048;-79
2024/03/06 01:22:26;;;;;;;17.40;14.43;;;6.80;95.40;;;;;;5056797;28;20021;-80
2024/03/06 01:24:52;;;;;;;17.65;15.15;;;6.80;95.40;;;;;;5058607;28;20037;-82
2024/03/06 01:27:17;;;;;;;17.23;14.82;;;6.80;95.40;;;;;;5057985;28;20037;-79
2024/03/06 01:29:43;;;;;;;18.27;15.40;;;6.70;95.40;;;;;;5058375;28;20378;-81
2024/03/06 01:32:10;;;;;;;18.52;14.30;;;6.70;95.40;;;;;;5053066;28;20377;-80
2024/03/06 01:34:36;;;;;;;17.75;15.10;;;6.70;95.50;;;;;;5053502;28;20020;-79
2024/03/06 01:37:01;;;;;;;19.38;16.38;;;6.60;95.60;;;;;;5057244;28;20287;-81
2024/03/06 01:39:27;;;;;;;18.98;15.52;;;6.60;95.60;;;;;;5055787;28;20163;-80
2024/03/06 01:41:53;;;;;;;21.50;15.82;;;6.60;95.70;;;;;;5058315;28;20028;-80
2024/03/06 01:44:19;;;;;;;20.13;16.23;;;6.60;95.70;;;;;;5049549;28;20208;-79
2024/03/06 01:46:45;;;;;;;20.40;16.65;;;6.60;95.70;;;;;;5056020;28;20037;-77
2024/03/06 01:49:13;;;;;;;19.98;17.40;;;6.60;95.70;;;;;;5059224;28;20036;-79
2024/03/06 01:51:40;;;;;;;17.77;15.85;;;6.50;95.70;;;;;;5053404;28;20032;-81
2024/03/06 01:54:07;;;;;;;18.90;16.05;;;6.50;95.70;;;;;;5052898;28;20075;-79
2024/03/06 01:56:40;;;;;;;20.27;16.50;;;6.40;95.70;;;;;;5054324;28;20567;-81
2024/03/06 01:59:06;;;;;;;18.70;16.00;;;6.40;95.70;;;;;;5054272;28;20025;-81
2024/03/06 02:01:32;;;;;;;19.85;17.33;;;6.40;95.80;;;;;;5048718;28;20040;-80
2024/03/06 02:03:59;;;;;;;19.73;16.67;;;6.40;95.80;;;;;;5052611;28;20024;-79
2024/03/06 02:06:25;;;;;;;20.30;17.42;;;6.40;95.80;;;;;;5055445;28;20048;-81
2024/03/06 02:08:51;;;;;;;20.15;17.75;;;6.40;95.80;;;;;;5053598;28;20114;-79
2024/03/06 02:11:17;;;;;;;21.15;17.30;;;6.40;95.90;;;;;;5055443;28;20119;-81
2024/03/06 02:13:43;;;;;;;23.30;18.52;;;6.30;95.90;;;;;;5053751;28;20039;-80
2024/03/06 02:16:11;;;;;;;19.30;17.13;;;6.30;95.90;;;;;;5050860;28;20074;-79
2024/03/06 02:18:37;;;;;;;19.88;17.17;;;6.20;95.90;;;;;;5052312;28;21141;-80
2024/03/06 02:21:04;;;;;;;19.83;17.38;;;6.20;96.00;;;;;;5057616;28;20032;-80
2024/03/06 02:23:30;;;;;;;20.55;18.02;;;6.20;96.00;;;;;;5056158;28;20570;-80
2024/03/06 02:25:56;;;;;;;21.55;18.25;;;6.20;96.00;;;;;;5053279;28;20037;-80
2024/03/06 02:28:22;;;;;;;21.10;18.00;;;6.10;96.10;;;;;;5051092;28;20067;-80
2024/03/06 02:30:50;;;;;;;20.33;18.23;;;6.10;96.10;;;;;;5049068;28;20396;-79
2024/03/06 02:33:17;;;;;;;24.75;18.90;;;6.10;96.20;;;;;;5054007;28;20043;-80
2024/03/06 02:35:44;;;;;;;21.35;19.13;;;6.10;96.20;;;;;;5048864;28;20051;-80
2024/03/06 02:38:10;;;;;;;21.35;18.63;;;6.10;96.20;;;;;;5050828;28;20120;-79
2024/03/06 02:40:36;;;;;;;27.38;19.83;;;6.00;96.20;;;;;;5052378;28;20037;-80
2024/03/06 02:43:02;;;;;;;22.15;19.45;;;6.10;96.30;;;;;;5053820;28;20064;-79
2024/03/06 02:45:28;;;;;;;22.73;19.88;;;6.00;96.30;;;;;;5052491;28;20497;-80
2024/03/06 02:47:54;;;;;;;23.13;20.63;;;6.00;96.30;;;;;;5056710;28;20016;-79
2024/03/06 02:50:20;;;;;;;22.98;20.17;;;6.00;96.30;;;;;;5049512;28;20531;-78
2024/03/06 02:52:46;;;;;;;22.92;20.23;;;5.90;96.20;;;;;;5050841;28;20396;-80
2024/03/06 02:55:12;;;;;;;21.98;19.45;;;5.80;96.20;;;;;;5053713;28;20086;-80
2024/03/06 02:57:37;;;;;;;23.25;19.85;;;5.70;96.20;;;;;;5052129;28;20032;-77
2024/03/06 03:00:04;;;;;;;22.75;20.33;;;5.70;96.20;;;;;;5046415;28;20517;-80
2024/03/06 03:02:29;;;;;;;22.50;20.10;;;5.70;96.30;;;;;;5048714;28;20075;-79
2024/03/06 03:04:55;;;;;;;23.10;20.38;;;5.70;96.30;;;;;;5047206;28;20048;-80
2024/03/06 03:07:20;;;;;;;21.80;19.50;;;5.70;96.30;;;;;;5050726;28;20055;-80
2024/03/06 03:09:47;;;;;;;22.85;20.45;;;5.70;96.40;;;;;;5054005;28;20025;-79
2024/03/06 03:12:12;;;;;;;23.67;20.75;;;5.70;96.50;;;;;;5045116;28;20736;-80
2024/03/06 03:14:40;;;;;;;25.25;21.10;;;5.70;96.50;;;;;;5052194;28;20048;-80
2024/03/06 03:17:06;;;;;;;23.67;21.05;;;5.80;96.50;;;;;;5055759;28;20059;-80
2024/03/06 03:19:31;;;;;;;25.08;21.88;;;5.70;96.50;;;;;;5052558;28;20352;-80
2024/03/06 03:21:57;;;;;;;22.63;20.17;;;5.80;96.50;;;;;;5049359;28;20571;-79
2024/03/06 03:24:25;;;;;;;21.83;19.23;;;5.80;96.50;;;;;;5059202;28;20454;-80
2024/03/06 03:26:51;;;;;;;21.90;18.92;;;5.80;96.40;;;;;;5050152;28;20048;-80
2024/03/06 03:29:17;;;;;;;25.48;21.02;;;5.80;96.30;;;;;;5051473;28;20029;-80
2024/03/06 03:31:43;;;;;;;24.52;21.92;;;5.80;96.30;;;;;;5052362;28;20089;-80
2024/03/06 03:34:09;;;;;;;23.98;21.38;;;5.80;96.30;;;;;;5052787;28;20475;-81
2024/03/06 03:36:34;;;;;;;25.60;20.50;;;5.80;96.30;;;;;;5054732;28;20097;-79
2024/03/06 03:39:00;;;;;;;23.60;20.45;;;5.80;96.30;;;;;;5056689;28;20075;-80
2024/03/06 03:41:26;;;;;;;23.73;21.25;;;5.80;96.30;;;;;;5054475;28;20028;-80
2024/03/06 03:43:51;;;;;;;24.95;22.25;;;5.80;96.30;;;;;;5053130;28;20059;-80
2024/03/06 03:46:17;;;;;;;25.40;22.70;;;5.70;96.30;;;;;;5053272;28;20039;-81
2024/03/06 03:48:43;;;;;;;25.35;22.23;;;5.70;96.30;;;;;;5050317;28;20422;-79
2024/03/06 03:51:09;;;;;;;25.23;22.42;;;5.70;96.40;;;;;;5054200;28;20098;-80
2024/03/06 03:53:35;;;;;;;26.98;24.08;;;5.70;96.40;;;;;;5052888;28;20020;-79
2024/03/06 03:56:01;;;;;;;25.65;22.75;;;5.70;96.50;;;;;;5057644;28;20457;-80
2024/03/06 03:58:27;;;;;;;25.73;22.90;;;5.60;96.50;;;;;;5058848;28;20514;-80
2024/03/06 04:00:54;;;;;;;25.05;22.00;;;5.60;96.50;;;;;;5054645;28;20029;-79
2024/03/06 04:03:20;;;;;;;27.55;23.88;;;5.60;96.50;;;;;;5061668;28;20020;-80
2024/03/06 04:05:49;;;;;;;24.33;20.90;;;5.60;96.60;;;;;;5054628;28;20036;-80
2024/03/06 04:08:15;;;;;;;24.45;20.75;;;5.60;96.60;;;;;;5060581;28;20027;-80
2024/03/06 04:10:44;;;;;;;24.98;22.20;;;5.60;96.70;;;;;;5050873;28;20035;-80
2024/03/06 04:13:12;;;;;;;26.13;23.30;;;5.60;96.80;;;;;;5058496;28;20044;-79
2024/03/06 04:15:37;;;;;;;26.30;22.70;;;5.60;96.70;;;;;;5053984;28;20055;-78
2024/03/06 04:18:03;;;;;;;24.83;21.42;;;5.50;96.70;;;;;;5055909;28;20445;-80
2024/03/06 04:20:29;;;;;;;25.40;22.77;;;5.50;96.70;;;;;;5052066;28;20043;-80
2024/03/06 04:22:54;;;;;;;27.75;23.42;;;5.40;96.70;;;;;;5055488;28;20025;-79
2024/03/06 04:25:20;;;;;;;27.02;23.33;;;5.40;96.80;;;;;;5069567;28;20037;-80
2024/03/06 04:27:46;;;;;;;30.55;24.08;;;5.40;96.80;;;;;;5052501;28;20099;-79
2024/03/06 04:30:12;;;;;;;27.13;22.10;;;5.40;96.90;;;;;;5049115;28;21544;-79
2024/03/06 04:32:38;;;;;;;26.45;23.00;;;5.40;96.80;;;;;;5054998;28;20039;-79
2024/03/06 04:35:04;;;;;;;29.17;23.80;;;5.30;96.90;;;;;;5053324;28;20067;-78
2024/03/06 04:37:30;;;;;;;29.42;23.70;;;5.40;96.90;;;;;;5058184;28;20060;-79
2024/03/06 04:39:56;;;;;;;28.10;23.70;;;5.40;97.00;;;;;;5053432;28;20040;-80
2024/03/06 04:42:21;;;;;;;33.53;25.77;;;5.40;97.00;;;;;;5054429;28;20032;-78
2024/03/06 04:44:47;;;;;;;26.40;23.52;;;5.50;97.00;;;;;;5058607;28;20040;-79
2024/03/06 04:47:13;;;;;;;28.67;25.25;;;5.50;97.00;;;;;;5055425;28;20662;-79
2024/03/06 04:49:39;;;;;;;29.42;25.25;;;5.60;97.00;;;;;;5053576;28;20135;-79
2024/03/06 04:52:04;;;;;;;30.80;23.77;;;5.60;97.00;;;;;;5055950;28;20041;-79
2024/03/06 04:54:30;;;;;;;28.45;25.45;;;5.60;96.90;;;;;;5047327;28;20107;-79
2024/03/06 04:56:56;;;;;;;27.63;24.63;;;5.60;96.90;;;;;;5046597;28;20525;-79
2024/03/06 04:59:21;;;;;;;27.55;24.15;;;5.60;96.90;;;;;;5053756;28;20537;-80
2024/03/06 05:01:47;;;;;;;27.85;24.48;;;5.60;96.90;;;;;;5048215;28;20480;-78
2024/03/06 05:04:13;;;;;;;27.77;24.90;;;5.60;96.90;;;;;;5045327;28;20021;-79
2024/03/06 05:06:38;;;;;;;31.27;26.90;;;5.50;96.90;;;;;;5052820;28;20036;-79
2024/03/06 05:09:05;;;;;;;29.30;26.05;;;5.50;96.90;;;;;;5050904;28;20112;-79
2024/03/06 05:11:31;;;;;;;28.60;25.02;;;5.50;96.90;;;;;;5053675;28;20024;-78
2024/03/06 05:14:00;;;;;;;30.50;27.23;;;5.40;96.90;;;;;;5054516;28;20235;-79
2024/03/06 05:16:26;;;;;;;28.65;25.40;;;5.40;96.90;;;;;;5054376;28;20043;-79
2024/03/06 05:18:52;;;;;;;32.33;28.83;;;5.40;97.00;;;;;;5056423;28;20034;-78
2024/03/06 05:21:18;;;;;;;31.95;28.45;;;5.40;97.00;;;;;;5052275;28;20024;-79
2024/03/06 05:23:44;;;;;;;30.10;26.80;;;5.40;97.00;;;;;;5054762;28;20408;-80
2024/03/06 05:26:09;;;;;;;33.00;27.45;;;5.40;97.10;;;;;;5052781;28;20037;-79
2024/03/06 05:28:35;;;;;;;29.83;26.63;;;5.50;97.20;;;;;;5053708;28;20023;-78
2024/03/06 05:31:01;;;;;;;29.98;26.63;;;5.50;97.30;;;;;;5052315;28;20115;-79
2024/03/06 05:33:28;;;;;;;33.13;28.23;;;5.50;97.30;;;;;;5052796;28;20048;-79
2024/03/06 05:35:54;;;;;;;30.38;27.13;;;5.50;97.30;;;;;;5051927;28;20036;-78
2024/03/06 05:38:21;;;;;;;37.08;28.65;;;5.60;97.20;;;;;;5056798;28;20320;-79
2024/03/06 05:40:47;;;;;;;31.38;27.80;;;5.60;97.10;;;;;;5049922;28;20094;-78
2024/03/06 05:43:13;;;;;;;31.20;27.75;;;5.50;97.00;;;;;;5054499;28;20044;-79
2024/03/06 05:45:38;;;;;;;31.52;27.52;;;5.50;97.00;;;;;;5055055;28;20443;-79
2024/03/06 05:48:04;;;;;;;32.65;29.10;;;5.50;97.00;;;;;;5055511;28;20461;-78
2024/03/06 05:50:30;;;;;;;30.92;27.67;;;5.40;97.00;;;;;;5057177;28;20128;-79
2024/03/06 05:52:57;;;;;;;34.88;29.30;;;5.50;97.10;;;;;;5050308;28;20017;-79
2024/03/06 05:55:23;;;;;;;31.67;28.15;;;5.50;97.20;;;;;;5054254;28;20032;-79
2024/03/06 05:57:49;;;;;;;33.25;28.73;;;5.50;97.20;;;;;;5045991;28;20028;-80
2024/03/06 06:00:17;;;;;;;35.50;29.83;;;5.50;97.20;;;;;;5054862;28;20138;-80
2024/03/06 06:02:45;;;;;;;31.25;27.80;;;5.50;97.10;;;;;;5049841;28;20017;-80
2024/03/06 06:05:11;;;;;;;31.63;28.23;;;5.60;97.10;;;;;;5050513;28;20048;-79
2024/03/06 06:07:37;;;;;;;31.50;28.13;;;5.50;97.10;;;;;;5057256;28;20055;-78
2024/03/06 06:10:08;;;;;;;31.45;27.90;;;5.50;97.10;;;;;;5054049;28;20052;-79
2024/03/06 06:12:34;;;;;;;31.15;27.73;;;5.40;97.00;;;;;;5055025;28;20504;-78
2024/03/06 06:15:00;;;;;;;31.70;28.27;;;5.40;96.90;;;;;;5051699;28;20051;-80
2024/03/06 06:17:25;;;;;;;34.40;29.45;;;5.30;96.90;;;;;;5049706;28;20052;-80
2024/03/06 06:19:51;;;;;;;105.90;42.90;;;5.30;96.90;;;;;;5052177;28;20036;-78
2024/03/06 06:22:16;;;;;;;393.15;78.68;;;5.20;96.90;;;;;;5050886;28;20024;-78
2024/03/06 06:24:42;;;;;;;451.42;88.90;;;5.10;97.00;;;;;;5051196;28;20131;-80
2024/03/06 06:27:08;;;;;;;238.98;60.90;;;5.10;97.10;;;;;;5050869;28;20106;-76
2024/03/06 06:29:34;;;;;;;44.50;33.42;;;5.10;97.10;;;;;;5051211;28;20666;-79
2024/03/06 06:31:59;;;;;;;37.85;30.85;;;5.10;97.20;;;;;;5046370;28;20112;-81
2024/03/06 06:34:27;;;;;;;38.35;30.08;;;5.10;97.20;;;;;;5054166;28;20017;-80
2024/03/06 06:36:53;;;;;;;36.75;30.70;;;5.10;97.20;;;;;;5048940;28;20046;-79
2024/03/06 06:39:19;;;;;;;46.45;30.77;;;5.10;97.20;;;;;;5049867;28;20428;-80
2024/03/06 06:41:44;;;;;;;42.38;30.77;;;5.10;97.20;;;;;;5052761;28;20530;-78
2024/03/06 06:44:10;;;;;;;47.30;31.38;;;5.10;97.10;;;;;;5049608;28;20025;-78
2024/03/06 06:46:38;;;;;;;39.95;31.63;;;5.10;97.20;;;;;;5048383;28;20420;-78
2024/03/06 06:49:04;;;;;;;39.60;30.00;;;5.10;97.10;;;;;;5052346;28;20154;-78
2024/03/06 06:51:30;;;;;;;43.65;33.05;;;5.10;97.10;;;;;;5051319;28;20028;-79
2024/03/06 06:53:55;;;;;;;40.78;32.53;;;5.10;97.10;;;;;;5052971;28;20097;-78
2024/03/06 06:56:23;;;;;;;34.60;30.00;;;5.10;97.10;;;;;;5056045;28;20021;-78
2024/03/06 06:58:49;;;;;;;38.10;32.55;;;5.20;97.10;;;;;;5047098;28;20074;-78
2024/03/06 07:01:16;;;;;;;37.78;32.00;;;5.30;97.10;;;;;;5048433;28;20033;-78
2024/03/06 07:03:42;;;;;;;42.55;34.05;;;5.40;97.10;;;;;;5046601;28;20021;-78
2024/03/06 07:06:08;;;;;;;42.92;35.53;;;5.40;97.00;;;;;;5047805;28;20053;-79
2024/03/06 07:08:33;;;;;;;43.53;36.58;;;5.50;97.00;;;;;;5049046;28;20041;-79
2024/03/06 07:10:59;;;;;;;46.28;41.30;;;5.60;96.90;;;;;;5048494;28;20377;-78
2024/03/06 07:13:25;;;;;;;37.78;32.33;;;5.70;96.80;;;;;;5054134;28;20021;-79
2024/03/06 07:15:51;;;;;;;34.38;28.83;;;5.70;96.20;;;;;;5050227;28;20496;-78
2024/03/06 07:18:16;;;;;;;33.85;30.25;;;5.80;96.00;;;;;;5052708;28;20035;-77
2024/03/06 07:20:42;;;;;;;38.95;33.33;;;5.80;95.90;;;;;;5050123;28;20048;-74
2024/03/06 07:23:08;;;;;;;38.58;33.38;;;5.80;95.90;;;;;;5050618;28;20075;-73
2024/03/06 07:25:34;;;;;;;35.25;31.45;;;5.80;95.90;;;;;;5049950;28;20035;-75
2024/03/06 07:27:59;;;;;;;36.38;31.00;;;5.80;95.90;;;;;;5050606;28;20051;-74
2024/03/06 07:30:25;;;;;;;42.00;35.72;;;5.90;96.00;;;;;;5053944;28;20500;-74
2024/03/06 07:32:51;;;;;;;39.45;35.35;;;5.90;96.10;;;;;;5054473;28;20064;-75
2024/03/06 07:35:17;;;;;;;42.47;36.90;;;5.90;96.10;;;;;;5053717;28;20067;-74
2024/03/06 07:37:44;;;;;;;46.35;40.38;;;6.00;96.20;;;;;;5055810;28;20361;-73
2024/03/06 07:40:10;;;;;;;41.40;36.55;;;6.10;96.40;;;;;;5057043;28;20500;-74
2024/03/06 07:42:37;;;;;;;44.40;37.60;;;6.10;96.40;;;;;;5055691;28;20382;-74
2024/03/06 07:45:04;;;;;;;42.20;36.38;;;6.10;96.40;;;;;;5057434;28;20495;-73
2024/03/06 07:47:29;;;;;;;47.40;40.05;;;6.30;96.50;;;;;;5061022;28;20073;-73
2024/03/06 07:49:55;;;;;;;44.70;37.45;;;6.30;96.50;;;;;;5048316;28;20037;-75
2024/03/06 07:52:20;;;;;;;44.60;38.40;;;6.40;96.60;;;;;;5055549;28;20066;-74
2024/03/06 07:54:46;;;;;;;42.38;37.20;;;6.50;96.60;;;;;;5054008;28;20354;-74
2024/03/06 07:57:12;;;;;;;42.63;35.70;;;6.60;96.50;;;;;;5058326;28;20028;-74
2024/03/06 07:59:38;;;;;;;41.30;36.20;;;6.50;96.10;;;;;;5054416;28;20077;-74
2024/03/06 08:02:04;;;;;;;47.42;39.30;;;6.50;96.20;;;;;;5061195;28;20078;-74
2024/03/06 08:04:30;;;;;;;42.72;36.83;;;6.60;96.30;;;;;;5054693;28;20032;-73
2024/03/06 08:06:56;;;;;;;41.92;35.65;;;6.60;96.20;;;;;;5054740;28;20041;-74
2024/03/06 08:09:23;;;;;;;42.80;37.92;;;6.60;96.20;;;;;;5052852;28;20037;-73
2024/03/06 08:11:49;;;;;;;43.50;38.78;;;6.80;96.30;;;;;;5063833;28;20036;-73
2024/03/06 08:14:17;;;;;;;43.92;39.15;;;7.00;96.40;;;;;;5050430;28;20023;-73
2024/03/06 08:16:42;;;;;;;47.90;41.05;;;7.10;96.40;;;;;;5052493;28;20032;-74
2024/03/06 08:19:09;;;;;;;47.83;38.97;;;7.30;96.40;;;;;;5052085;28;20036;-75
2024/03/06 08:21:35;;;;;;;40.92;35.67;;;7.40;96.20;;;;;;5049996;28;20174;-75
2024/03/06 08:24:00;;;;;;;43.63;37.55;;;7.60;96.30;;;;;;5053373;28;20028;-75
2024/03/06 08:26:26;;;;;;;40.10;34.30;;;7.90;96.10;;;;;;5052814;28;20033;-73
2024/03/06 08:28:52;;;;;;;40.15;33.30;;;8.10;96.00;;;;;;5053407;28;20083;-75
2024/03/06 08:31:18;;;;;;;36.67;30.83;;;8.50;96.00;;;;;;5054358;28;20432;-72
2024/03/06 08:33:44;;;;;;;36.10;31.90;;;8.60;95.30;;;;;;5055174;28;20096;-74
2024/03/06 08:36:10;;;;;;;35.10;31.20;;;8.70;94.70;;;;;;5053175;28;20052;-75
2024/03/06 08:38:35;;;;;;;35.35;29.85;;;8.60;94.00;;;;;;5059337;28;20059;-75
2024/03/06 08:41:01;;;;;;;36.50;29.25;;;8.70;93.90;;;;;;5066778;28;20021;-74
2024/03/06 08:43:27;;;;;;;31.80;27.73;;;8.60;93.30;;;;;;5063405;28;20508;-73
2024/03/06 08:45:52;;;;;;;34.08;28.42;;;8.60;93.10;;;;;;5048720;28;20118;-73
2024/03/06 08:48:18;;;;;;;33.95;27.45;;;8.70;93.40;;;;;;5054372;28;20109;-73
2024/03/06 08:50:43;;;;;;;34.08;28.52;;;8.80;93.30;;;;;;5050475;28;20488;-74
2024/03/06 08:53:09;;;;;;;32.42;27.25;;;8.90;93.30;;;;;;5051448;28;20345;-77
2024/03/06 08:55:35;;;;;;;34.90;27.73;;;9.10;93.40;;;;;;5049136;28;20114;-74
2024/03/06 08:58:01;;;;;;;33.42;28.05;;;9.30;92.90;;;;;;5057683;28;20024;-74
2024/03/06 09:00:26;;;;;;;34.42;26.60;;;9.50;92.90;;;;;;5046963;28;20067;-74
2024/03/06 09:02:53;;;;;;;32.65;25.38;;;9.70;92.10;;;;;;5051307;28;20070;-75
2024/03/06 09:05:20;;;;;;;31.70;24.02;;;9.90;91.20;;;;;;5045800;28;20037;-75
2024/03/06 09:07:46;;;;;;;30.58;24.77;;;10.10;91.20;;;;;;5054638;28;20370;-74
2024/03/06 09:10:13;;;;;;;28.98;23.48;;;10.20;89.80;;;;;;5057924;28;20032;-74
2024/03/06 09:12:39;;;;;;;27.73;22.95;;;10.40;89.40;;;;;;5051712;28;20148;-75
2024/03/06 09:15:08;;;;;;;27.33;22.55;;;10.40;89.10;;;;;;5052090;28;20925;-74
2024/03/06 09:17:34;;;;;;;26.38;21.88;;;10.60;88.70;;;;;;5047513;28;20020;-75
2024/03/06 09:20:09;;;;;;;28.00;22.08;;;10.80;88.50;;;;;;5047059;28;20024;-76
2024/03/06 09:22:36;;;;;;;28.52;21.27;;;11.10;87.80;;;;;;5056609;28;20023;-75
2024/03/06 09:25:01;;;;;;;28.90;20.40;;;11.10;87.10;;;;;;5049502;28;20024;-74
2024/03/06 09:27:27;;;;;;;23.08;17.77;;;11.30;86.50;;;;;;5053363;28;20039;-74
2024/03/06 09:29:53;;;;;;;25.90;19.40;;;11.40;85.60;;;;;;5052754;28;20043;-74
2024/03/06 09:32:19;;;;;;;25.08;18.45;;;11.40;85.40;;;;;;5048707;28;20033;-74
2024/03/06 09:34:44;;;;;;;23.75;18.83;;;11.40;85.10;;;;;;5050092;28;20025;-72
2024/03/06 09:37:10;;;;;;;26.08;17.60;;;11.40;85.40;;;;;;5045135;28;20047;-73
2024/03/06 09:39:36;;;;;;;22.15;17.85;;;11.60;84.70;;;;;;5051814;28;20145;-74
2024/03/06 09:42:01;;;;;;;25.98;17.73;;;11.60;84.10;;;;;;5052141;28;20044;-74
2024/03/06 09:44:27;;;;;;;26.02;18.55;;;11.70;84.20;;;;;;5051039;28;20629;-73
2024/03/06 09:46:56;;;;;;;22.35;16.45;;;11.80;83.50;;;;;;5053693;28;20094;-75
2024/03/06 09:49:22;;;;;;;25.35;17.58;;;11.60;82.50;;;;;;5050766;28;20021;-72
2024/03/06 09:51:58;;;;;;;24.30;18.65;;;11.60;83.50;;;;;;5050284;28;20091;-75
2024/03/06 09:54:26;;;;;;;22.17;16.48;;;11.70;83.90;;;;;;5051884;28;20024;-74
2024/03/06 09:56:54;;;;;;;23.05;17.65;;;11.80;83.50;;;;;;5055066;28;20136;-75
2024/03/06 09:59:20;;;;;;;22.92;15.95;;;12.00;83.40;;;;;;5051628;28;20564;-75
2024/03/06 10:01:56;;;;;;;21.05;15.43;;;12.00;81.60;;;;;;5055230;28;20033;-75
2024/03/06 10:04:27;;;;;;;18.15;14.00;;;11.90;82.70;;;;;;5051405;28;20033;-75
2024/03/06 10:06:59;;;;;;;16.85;13.07;;;12.10;82.30;;;;;;5055082;28;20352;-75
2024/03/06 10:09:26;;;;;;;20.20;14.73;;;12.10;81.50;;;;;;5050282;28;20017;-75
2024/03/06 10:11:53;;;;;;;17.90;13.52;;;12.30;81.70;;;;;;5055051;28;20036;-76
2024/03/06 10:14:19;;;;;;;15.95;13.48;;;12.10;80.60;;;;;;5056448;28;20563;-75
2024/03/06 10:16:59;;;;;;;18.77;14.10;;;12.10;81.30;;;;;;5057969;28;20044;-75
2024/03/06 10:19:29;;;;;;;17.13;13.57;;;12.40;82.60;;;;;;5055375;28;20017;-75
2024/03/06 10:21:56;;;;;;;17.25;13.15;;;12.40;78.70;;;;;;5053878;28;20044;-75
2024/03/06 10:24:29;;;;;;;20.95;13.18;;;12.60;80.40;;;;;;5054705;28;20030;-75
2024/03/06 10:26:58;;;;;;;15.23;11.43;;;12.80;79.60;;;;;;5053314;28;20060;-74
2024/03/06 10:29:25;;;;;;;15.32;12.18;;;13.10;80.00;;;;;;5053199;28;20968;-75
2024/03/06 10:31:54;;;;;;;16.13;12.70;;;13.20;76.20;;;;;;5056922;28;20086;-74
2024/03/06 10:34:21;;;;;;;16.42;13.07;;;13.50;77.20;;;;;;5055291;28;20080;-74
2024/03/06 10:37:01;;;;;;;18.98;13.10;;;13.60;76.00;;;;;;5053663;28;20060;-75
2024/03/06 10:39:29;;;;;;;16.48;13.35;;;13.40;75.50;;;;;;5057266;28;20571;-76
2024/03/06 10:41:56;;;;;;;18.60;12.90;;;13.40;75.10;;;;;;5054402;28;20039;-74
2024/03/06 10:44:26;;;;;;;17.95;14.25;;;13.20;75.60;;;;;;5051578;28;20071;-75
2024/03/06 10:47:00;;;;;;;18.30;13.20;;;13.20;76.60;;;;;;5052930;28;20094;-74
2024/03/06 10:49:27;;;;;;;18.10;13.60;;;13.50;77.00;;;;;;5053479;28;20518;-76
2024/03/06 10:51:57;;;;;;;18.02;13.15;;;13.60;76.10;;;;;;5055886;28;20277;-73
2024/03/06 10:54:26;;;;;;;16.70;12.73;;;13.90;76.30;;;;;;5052307;28;20020;-74
2024/03/06 10:56:53;;;;;;;14.82;12.48;;;14.00;74.40;;;;;;5055312;28;20546;-74
2024/03/06 10:59:20;;;;;;;17.63;12.38;;;13.50;74.40;;;;;;5055942;28;20706;-74
2024/03/06 11:01:47;;;;;;;15.68;12.20;;;13.40;76.00;;;;;;5045526;28;20059;-76
2024/03/06 11:04:15;;;;;;;18.00;12.68;;;13.50;75.20;;;;;;5043696;28;20485;-79
2024/03/06 11:06:41;;;;;;;14.30;12.48;;;13.70;73.90;;;;;;5050354;28;20044;-76
2024/03/06 11:09:11;;;;;;;17.08;12.65;;;13.90;74.60;;;;;;5047547;28;20024;-75
2024/03/06 11:11:54;;;;;;;15.90;11.77;;;14.30;73.50;;;;;;5052105;28;20051;-77
2024/03/06 11:14:23;;;;;;;15.65;11.40;;;14.50;71.40;;;;;;5044056;28;20059;-77
2024/03/06 11:17:05;;;;;;;15.68;11.40;;;14.50;71.40;;;;;;5048194;28;20083;-78
2024/03/06 11:19:32;;;;;;;17.38;12.30;;;14.10;73.50;;;;;;5050877;28;20021;-75
2024/03/06 11:21:58;;;;;;;15.52;12.18;;;14.30;73.60;;;;;;5053176;28;20073;-77
2024/03/06 11:24:32;;;;;;;14.43;11.18;;;14.30;73.40;;;;;;5051842;28;20024;-76
2024/03/06 11:27:02;;;;;;;15.43;10.77;;;14.10;72.50;;;;;;5050346;28;21267;-77
2024/03/06 11:29:29;;;;;;;13.38;10.30;;;14.30;72.10;;;;;;5055890;28;20099;-78
2024/03/06 11:32:07;;;;;;;11.60;9.23;;;14.30;70.70;;;;;;5050373;28;20032;-74
2024/03/06 11:34:34;;;;;;;12.82;9.43;;;14.30;72.30;;;;;;5048586;28;20059;-76
2024/03/06 11:37:04;;;;;;;13.50;9.65;;;14.50;71.80;;;;;;5053681;28;20051;-76
2024/03/06 11:39:36;;;;;;;13.63;9.20;;;14.30;71.00;;;;;;5050221;28;20016;-79
2024/03/06 11:42:08;;;;;;;12.57;8.35;;;14.10;72.50;;;;;;5053741;28;20044;-77
2024/03/06 11:44:35;;;;;;;10.85;8.88;;;14.40;72.70;;;;;;5049191;28;20364;-76
2024/03/06 11:47:03;;;;;;;11.70;8.52;;;14.70;70.50;;;;;;5052949;28;20052;-78
2024/03/06 11:49:33;;;;;;;11.55;8.07;;;14.80;69.80;;;;;;5046674;28;20036;-74
2024/03/06 11:52:02;;;;;;;11.43;7.97;;;14.20;70.30;;;;;;5052624;28;20044;-74
2024/03/06 11:54:29;;;;;;;11.30;7.85;;;14.10;70.30;;;;;;5049840;28;20435;-76
2024/03/06 11:56:57;;;;;;;10.52;8.13;;;14.30;70.70;;;;;;5050129;28;20037;-77
2024/03/06 11:59:39;;;;;;;12.10;7.63;;;14.60;69.60;;;;;;5048039;28;20021;-76
2024/03/06 12:02:06;;;;;;;10.80;7.20;;;14.20;69.70;;;;;;5052976;28;20033;-75
2024/03/06 12:04:39;;;;;;;11.98;7.50;;;14.30;69.30;;;;;;5051094;28;20017;-76
2024/03/06 12:07:05;;;;;;;9.95;6.68;;;14.30;69.60;;;;;;5053456;28;20053;-77
2024/03/06 12:09:34;;;;;;;12.10;6.82;;;14.50;68.80;;;;;;5049871;28;20373;-76
2024/03/06 12:12:00;;;;;;;11.93;7.10;;;14.70;68.80;;;;;;5049055;28;20449;-76
2024/03/06 12:14:26;;;;;;;11.65;7.05;;;14.70;67.20;;;;;;5058221;28;20195;-76
2024/03/06 12:16:59;;;;;;;10.15;6.63;;;14.70;68.60;;;;;;5056680;28;20043;-76
2024/03/06 12:19:27;;;;;;;9.60;7.05;;;14.40;67.70;;;;;;5052142;28;20017;-76
2024/03/06 12:21:53;;;;;;;11.63;7.57;;;14.20;70.10;;;;;;5053237;28;20469;-77
2024/03/06 12:24:19;;;;;;;10.07;7.00;;;14.10;70.50;;;;;;5051349;28;20032;-76
2024/03/06 12:26:48;;;;;;;11.00;6.75;;;13.90;69.30;;;;;;5047065;28;20064;-78
2024/03/06 12:29:19;;;;;;;10.13;6.85;;;13.70;70.30;;;;;;5050659;28;20257;-75
2024/03/06 12:31:44;;;;;;;12.18;8.35;;;13.80;70.90;;;;;;5054678;28;20036;-73
2024/03/06 12:34:17;;;;;;;11.02;6.70;;;13.90;71.30;;;;;;5053901;28;20028;-75